Latest Weather Observations for Grafton Airport

IDN60801

Issued at 9:02 am EST Monday 30 May 2016 (issued every 30 minutes, with the page automatically refreshed every 10 minutes)

About weather observations | Map of weather stations | Latest weather observations for NSW | Other Formats
Station Details ID: 058161 Name: GRAFTON AIRPORT AWS Lat: -29.76 Lon: 153.03 Height: 25.09 m
Data from the previous 72 hours. | See also: Recent months at Grafton Airport
Date/Time
EST
Temp
°C
App
Temp
°C
Dew
Point
Rel
Hum
%
Delta-T
°C
Wind Press
QNH
hPa
Press
MSL
hPa
Rain
since 9 am
mm
Dir
 
Spd
km/h
Gust
km/h
Spd
kts
Gust
kts
30/09:00am 11.4 10.4 5.7 68 2.6 CALM 0 6 0 3 1024.8 1024.8 0.0
30/08:30am 8.5 7.0 4.9 78 1.6 SW 2 7 1 4 1024.6 1024.6 0.0
30/08:00am 6.4 5.2 4.6 88 0.8 CALM 0 0 0 0 1024.4 1024.4 0.0
30/07:30am 4.0 2.6 3.3 95 0.3 CALM 0 0 0 0 1024.2 1024.2 0.0
30/07:00am 3.1 1.5 2.4 95 0.3 CALM 0 0 0 0 1023.8 1023.8 0.0
30/06:30am 2.4 0.6 1.5 94 0.3 CALM 0 0 0 0 1023.4 1023.4 0.0
30/06:00am 2.7 1.0 1.8 94 0.3 CALM 0 0 0 0 1022.9 1022.9 0.0
30/05:30am 3.1 1.1 2.4 95 0.3 S 2 7 1 4 1022.7 1022.7 0.0
30/05:00am 3.1 0.4 2.4 95 0.3 S 6 9 3 5 1022.3 1022.3 0.0
30/04:30am 3.1 1.1 2.4 95 0.3 SSW 2 6 1 3 1022.0 1022.0 0.0
30/04:00am 3.2 1.2 2.3 94 0.4 SSW 2 6 1 3 1021.7 1021.7 0.0
30/03:30am 3.4 1.4 2.5 94 0.4 SSW 2 6 1 3 1021.4 1021.4 0.0
30/03:00am 2.9 0.4 1.4 90 0.6 SW 4 7 2 4 1021.4 1021.4 0.0
30/02:30am 3.9 2.3 2.7 92 0.5 CALM 0 0 0 0 1021.4 1021.4 0.0
30/02:00am 4.2 2.7 3.2 93 0.4 CALM 0 0 0 0 1021.4 1021.4 0.0
30/01:30am 4.7 3.3 3.4 91 0.5 CALM 0 0 0 0 1021.4 1021.4 0.0
30/01:00am 5.0 3.6 3.3 89 0.7 CALM 0 0 0 0 1021.2 1021.2 0.0
30/12:30am 5.2 2.7 3.7 90 0.6 SSW 6 9 3 5 1021.1 1021.1 0.0
30/12:00am 5.7 4.3 3.5 86 0.9 CALM 0 0 0 0 1021.0 1021.0 0.0
 
Date/Time
EST
Temp
°C
App
Temp
°C
Dew
Point
Rel
Hum
%
Delta-T
°C
Wind Press
QNH
hPa
Press
MSL
hPa
Rain
since 9 am
mm
Dir
 
Spd
km/h
Gust
km/h
Spd
kts
Gust
kts
29/11:30pm 6.1 4.8 4.1 87 0.9 CALM 0 0 0 0 1021.1 1021.1 0.0
29/11:00pm 6.2 4.7 3.2 81 1.2 CALM 0 0 0 0 1021.2 1021.2 0.0
29/10:30pm 7.4 5.0 4.2 80 1.4 SSW 6 9 3 5 1021.1 1021.1 0.0
29/10:00pm 7.3 4.0 4.6 83 1.2 SSW 11 13 6 7 1020.9 1020.9 0.0
29/09:30pm 7.1 4.7 4.2 82 1.3 SW 6 7 3 4 1020.8 1020.8 0.0
29/09:00pm 7.4 5.4 4.4 81 1.3 SSW 4 7 2 4 1020.7 1020.7 0.0
29/08:30pm 8.1 6.2 4.7 79 1.5 SSW 4 7 2 4 1020.5 1020.5 0.0
29/08:00pm 9.4 7.1 4.8 73 2.0 S 6 9 3 5 1020.1 1020.1 0.0
29/07:30pm 9.7 8.6 4.9 72 2.2 CALM 0 0 0 0 1019.8 1019.8 0.0
29/07:00pm 9.9 8.3 4.5 69 2.4 SSW 2 7 1 4 1019.4 1019.4 0.0
29/06:30pm 11.7 10.1 4.7 62 3.2 S 2 9 1 5 1018.9 1018.9 0.0
29/06:00pm 13.3 12.1 4.7 56 4.0 CALM 0 0 0 0 1018.7 1018.7 0.0
29/05:30pm 14.4 13.2 4.4 51 4.6 CALM 0 6 0 3 1018.2 1018.2 0.0
29/05:00pm 15.7 12.8 4.7 48 5.2 SE 9 11 5 6 1017.7 1017.7 0.0
29/04:30pm 17.5 13.7 4.1 41 6.3 E 13 19 7 10 1017.2 1017.2 0.0
29/04:00pm 18.8 14.5 3.4 36 7.2 ESE 15 24 8 13 1016.7 1016.7 0.0
29/03:30pm 20.9 17.1 -0.4 24 9.4 NNE 9 15 5 8 1016.2 1016.2 0.0
29/03:00pm 21.4 18.2 0.6 25 9.4 N 7 11 4 6 1015.9 1015.9 0.0
29/02:30pm 21.3 17.7 0.5 25 9.4 ENE 9 13 5 7 1015.8 1015.8 0.0
29/02:00pm 20.8 17.4 -0.5 24 9.4 ESE 7 15 4 8 1015.9 1015.9 0.0
29/01:30pm 21.0 17.9 1.3 27 9.0 ESE 7 13 4 7 1015.9 1015.9 0.0
29/01:00pm 21.1 19.0 1.9 28 8.9 SW 2 15 1 8 1016.1 1016.1 0.0
29/12:30pm 20.3 17.1 0.7 27 8.8 ENE 7 15 4 8 1016.4 1016.4 0.0
29/12:00pm 20.0 17.2 -0.1 26 8.9 E 4 11 2 6 1016.8 1016.8 0.0
29/11:30am 19.8 16.9 2.6 32 8.0 N 7 13 4 7 1017.0 1017.0 0.0
29/11:00am 18.7 15.7 2.1 33 7.6 N 7 13 4 7 1017.3 1017.3 0.0
29/10:30am 17.9 15.3 4.1 40 6.5 NNW 7 13 4 7 1017.9 1017.9 0.0
29/10:00am 17.2 15.0 3.5 40 6.3 SW 4 9 2 5 1018.2 1018.2 0.0
29/09:30am 15.5 12.8 3.9 46 5.4 W 7 13 4 7 1018.3 1018.3 0.0
29/09:00am 14.2 12.9 3.9 50 4.7 CALM 0 6 0 3 1018.3 1018.3 0.0
29/08:30am 12.8 11.9 5.9 63 3.3 CALM 0 0 0 0 1018.0 1018.0 0.0
29/08:00am 10.3 9.1 4.5 67 2.6 CALM 0 0 0 0 1017.9 1017.9 0.0
29/07:30am 7.2 5.9 4.0 80 1.4 CALM 0 0 0 0 1017.6 1017.6 0.0
29/07:00am 6.0 4.4 2.6 79 1.4 CALM 0 0 0 0 1017.1 1017.1 0.0
29/06:30am 5.6 3.6 2.4 80 1.3 NNE 2 7 1 4 1016.8 1016.8 0.0
29/06:00am 5.9 4.3 2.5 79 1.4 CALM 0 0 0 0 1016.3 1016.3 0.0
29/05:30am 5.9 3.4 1.8 75 1.6 NE 4 6 2 3 1016.1 1016.1 0.0
29/05:00am 9.8 7.0 1.9 58 3.3 SW 6 9 3 5 1015.6 1015.6 0.0
29/04:30am 10.8 7.8 2.1 55 3.7 WSW 7 13 4 7 1015.3 1015.3 0.0
29/04:00am 10.8 8.0 2.1 55 3.7 WSW 6 9 3 5 1015.3 1015.3 0.0
29/03:30am 10.7 7.9 2.0 55 3.7 WSW 6 11 3 6 1015.1 1015.1 0.0
29/03:00am 11.2 8.4 2.2 54 3.8 WSW 6 9 3 5 1015.0 1015.0 0.0
29/02:30am 10.7 9.0 2.0 55 3.7 CALM 0 0 0 0 1014.8 1014.8 0.0
29/02:00am 11.0 8.6 2.3 55 3.7 W 4 9 2 5 1014.5 1014.5 0.0
29/01:30am 10.9 9.0 3.0 58 3.4 WNW 2 7 1 4 1014.5 1014.5 0.0
29/01:00am 9.9 7.2 2.7 61 3.1 W 6 11 3 6 1014.4 1014.4 0.0
29/12:30am 11.1 9.6 2.9 57 3.6 CALM 0 7 0 4 1014.4 1014.4 0.0
29/12:00am 11.7 9.1 3.0 55 3.8 SSW 6 11 3 6 1014.1 1014.1 0.0
 
Date/Time
EST
Temp
°C
App
Temp
°C
Dew
Point
Rel
Hum
%
Delta-T
°C
Wind Press
QNH
hPa
Press
MSL
hPa
Rain
since 9 am
mm
Dir
 
Spd
km/h
Gust
km/h
Spd
kts
Gust
kts
28/11:30pm 10.5 7.8 2.6 58 3.4 NE 6 7 3 4 1014.0 1014.0 0.0
28/11:00pm 12.7 10.0 2.6 50 4.4 WSW 6 9 3 5 1013.9 1013.9 0.0
28/10:30pm 12.1 10.2 2.6 52 4.1 NNW 2 7 1 4 1013.8 1013.8 0.0
28/10:00pm 12.2 9.3 2.6 52 4.2 N 7 13 4 7 1013.7 1013.7 0.0
28/09:30pm 14.0 10.7 2.6 46 5.1 W 9 15 5 8 1013.0 1013.0 0.0
28/09:00pm 14.6 12.2 2.2 43 5.5 SSW 4 9 2 5 1013.0 1013.0 0.0
28/08:30pm 14.8 11.5 2.4 43 5.5 WSW 9 17 5 9 1012.7 1012.7 0.0
28/08:00pm 15.6 11.9 2.1 40 6.0 SW 11 22 6 12 1012.2 1012.2 0.0
28/07:30pm 16.4 11.5 1.7 37 6.5 W 17 35 9 19 1011.7 1011.6 0.0
28/07:00pm 16.8 12.5 1.3 35 6.9 WNW 13 30 7 16 1011.0 1010.9 0.0
28/06:30pm 17.1 12.0 0.7 33 7.2 WNW 17 30 9 16 1011.0 1010.9 0.0
28/06:00pm 17.3 12.2 0.9 33 7.2 W 17 28 9 15 1010.7 1010.6 0.0
28/05:30pm 18.0 11.9 0.6 31 7.7 W 22 44 12 24 1010.2 1010.1 0.0
28/05:00pm 18.1 12.7 1.2 32 7.5 W 19 39 10 21 1009.5 1009.4 0.0
28/04:30pm 18.6 13.0 1.2 31 7.8 WSW 20 33 11 18 1009.3 1009.2 0.0
28/04:00pm 20.2 16.0 1.6 29 8.5 WNW 13 24 7 13 1008.6 1008.5 0.0
28/03:30pm 20.5 15.5 1.4 28 8.7 WNW 17 32 9 17 1008.2 1008.1 0.0
28/03:00pm 20.5 14.8 0.4 26 9.0 W 20 46 11 25 1007.8 1007.7 0.0
28/02:30pm 21.3 16.4 2.1 28 8.9 W 17 28 9 15 1007.7 1007.6 0.0
28/02:00pm 21.7 17.3 2.9 29 8.9 NW 15 28 8 15 1007.6 1007.5 0.0
28/01:30pm 22.0 17.0 1.6 26 9.5 WNW 17 37 9 20 1007.5 1007.4 0.0
28/01:00pm 21.5 16.7 2.7 29 8.9 NNW 17 32 9 17 1007.4 1007.3 0.0
28/12:30pm 19.9 15.9 2.7 32 8.0 NW 13 24 7 13 1008.2 1008.1 0.0
28/12:00pm 20.7 16.6 4.3 34 8.0 NNW 15 24 8 13 1008.8 1008.7 0.0
28/11:30am 19.2 15.2 3.0 34 7.6 N 13 24 7 13 1009.3 1009.2 0.0
28/11:00am 19.1 15.6 3.3 35 7.4 NW 11 24 6 13 1009.9 1009.8 0.0
28/10:30am 18.8 15.8 4.2 38 7.0 NNW 9 15 5 8 1010.5 1010.4 0.0
28/10:00am 17.7 14.4 2.5 36 6.9 N 9 20 5 11 1011.0 1010.9 0.0
28/09:30am 17.0 13.5 3.3 40 6.3 NNW 11 15 6 8 1011.6 1011.5 0.0
28/09:00am 16.3 13.8 3.7 43 5.8 NNW 6 11 3 6 1011.8 1011.7 0.0
28/08:30am 14.5 13.0 4.8 52 4.5 WSW 2 7 1 4 1011.8 1011.7 0.0
28/08:00am 12.9 11.1 5.6 61 3.4 N 4 7 2 4 1011.7 1011.6 0.0
28/07:30am 10.2 8.5 4.1 66 2.7 SW 2 9 1 5 1011.7 1011.6 0.0
28/07:00am 8.3 6.9 3.4 71 2.1 CALM 0 0 0 0 1011.2 1011.1 0.0
28/06:30am 7.5 5.7 3.6 76 1.7 N 2 7 1 4 1011.0 1010.9 0.0
28/06:00am 7.1 4.9 3.3 77 1.6 SE 4 7 2 4 1010.7 1010.6 0.0
28/05:30am 6.9 5.4 3.0 76 1.6 CALM 0 0 0 0 1010.6 1010.5 0.0
28/05:00am 6.6 4.7 2.7 76 1.6 SSW 2 7 1 4 1010.6 1010.5 0.0
28/04:30am 9.9 8.3 2.5 60 3.2 CALM 0 7 0 4 1010.1 1010.0 0.0
28/04:00am 10.6 9.1 2.9 59 3.3 CALM 0 0 0 0 1010.1 1010.0 0.0
28/03:30am 10.6 9.0 2.4 57 3.5 CALM 0 6 0 3 1010.1 1010.0 0.0
28/03:00am 11.5 9.9 2.5 54 3.9 CALM 0 6 0 3 1010.1 1010.0 0.0
28/02:30am 12.4 9.7 2.8 52 4.2 NNW 6 11 3 6 1010.2 1010.1 0.0
28/02:00am 12.4 9.3 3.6 55 3.9 NNE 9 11 5 6 1010.2 1010.1 0.0
28/01:30am 11.2 8.0 3.3 58 3.5 NE 9 13 5 7 1010.2 1010.1 0.0
28/01:00am 11.5 10.1 3.3 57 3.6 CALM 0 0 0 0 1010.2 1010.1 0.0
28/12:30am 11.0 8.4 3.3 59 3.4 ESE 6 9 3 5 1010.2 1010.1 0.0
28/12:00am 12.3 10.7 2.7 52 4.2 CALM 0 6 0 3 1010.2 1010.1 0.0
 
Date/Time
EST
Temp
°C
App
Temp
°C
Dew
Point
Rel
Hum
%
Delta-T
°C
Wind Press
QNH
hPa
Press
MSL
hPa
Rain
since 9 am
mm
Dir
 
Spd
km/h
Gust
km/h
Spd
kts
Gust
kts
27/11:30pm 13.8 11.2 3.0 48 4.8 W 6 11 3 6 1010.1 1010.0 0.0
27/11:00pm 14.2 11.0 2.8 46 5.1 W 9 15 5 8 1010.0 1009.9 0.0
27/10:30pm 14.5 11.3 3.0 46 5.2 WSW 9 15 5 8 1010.0 1009.9 0.0
27/10:00pm 15.1 11.9 3.3 45 5.4 WSW 9 13 5 7 1009.6 1009.5 0.0
27/09:30pm 15.8 12.6 3.3 43 5.7 W 9 30 5 16 1009.3 1009.2 0.0
27/09:00pm 16.2 13.3 2.6 40 6.2 WNW 7 19 4 10 1009.1 1009.0 0.0
27/08:30pm 17.1 13.4 2.3 37 6.7 WNW 11 28 6 15 1008.6 1008.5 0.0
27/08:00pm 17.4 13.7 2.2 36 6.9 W 11 22 6 12 1008.2 1008.1 0.0
27/07:30pm 17.3 13.6 2.1 36 6.9 W 11 17 6 9 1007.6 1007.5 0.0
27/07:00pm 17.7 14.3 2.1 35 7.1 W 9 17 5 9 1007.4 1007.3 0.0
27/06:30pm 17.9 15.1 1.8 34 7.3 W 6 15 3 8 1006.9 1006.8 0.0
27/06:00pm 18.3 15.4 1.3 32 7.6 WNW 6 15 3 8 1006.4 1006.3 0.0
27/05:30pm 18.6 15.5 1.2 31 7.8 NNW 7 11 4 6 1006.0 1005.9 0.0
27/05:00pm 19.8 16.7 1.3 29 8.4 NNW 7 15 4 8 1005.3 1005.2 0.0
27/04:30pm 20.9 17.4 1.2 27 9.0 WNW 9 20 5 11 1004.7 1004.6 0.0
27/04:00pm 22.4 17.7 0.9 24 9.9 WNW 15 26 8 14 1004.3 1004.2 0.0
27/03:30pm 22.9 17.4 0.7 23 10.2 W 19 30 10 16 1004.0 1003.9 0.0
27/03:00pm 23.4 18.4 1.1 23 10.4 W 17 33 9 18 1003.5 1003.4 0.0
27/02:30pm 23.8 19.2 1.4 23 10.5 WNW 15 28 8 15 1003.5 1003.4 0.0
27/02:00pm 24.0 19.4 1.6 23 10.6 WNW 15 32 8 17 1003.4 1003.3 0.0
27/01:30pm 24.4 20.1 3.1 25 10.3 W 15 30 8 16 1003.4 1003.3 0.0
27/01:00pm 24.4 20.4 3.1 25 10.4 W 13 24 7 13 1003.7 1003.6 0.0
27/12:30pm 23.6 18.8 2.4 25 10.1 WNW 17 28 9 15 1003.8 1003.7 0.0
27/12:00pm 23.3 18.1 2.2 25 10.0 W 19 37 10 20 1004.3 1004.2 0.0
27/11:30am 22.9 18.0 3.9 29 9.3 W 19 37 10 20 1004.4 1004.3 0.0
27/11:00am 22.5 17.9 6.3 35 8.3 W 20 35 11 19 1005.1 1005.0 0.0
27/10:30am 21.3 17.5 6.0 37 7.7 W 15 30 8 16 1005.7 1005.6 0.0
27/10:00am 21.3 19.0 8.9 45 6.6 NW 11 20 6 11 1006.0 1005.9 0.0
27/09:30am 19.8 18.0 7.9 46 6.1 NW 7 13 4 7 1006.4 1006.3 0.0

Other Formats:

Comma delimited format used in spreadsheet applications
http://www.bom.gov.au/fwo/IDN60801/IDN60801.95570.axf

JavaScript Object Notation format (JSON) in row-major order
http://www.bom.gov.au/fwo/IDN60801/IDN60801.95570.json